sensor_id;sensor_type;location;lat;lon;timestamp;P1;durP1;ratioP1;P2;durP2;ratioP2
61709;SDS011;73500;51.494;5.386;2024-02-28T00:00:54;7.38;;;5.35;;
61709;SDS011;73500;51.494;5.386;2024-02-28T00:03:19;7.00;;;4.93;;
61709;SDS011;73500;51.494;5.386;2024-02-28T00:05:44;7.05;;;4.90;;
61709;SDS011;73500;51.494;5.386;2024-02-28T00:08:10;6.82;;;5.07;;
61709;SDS011;73500;51.494;5.386;2024-02-28T00:10:36;9.18;;;5.03;;
61709;SDS011;73500;51.494;5.386;2024-02-28T00:13:01;6.90;;;5.18;;
61709;SDS011;73500;51.494;5.386;2024-02-28T00:15:27;7.00;;;5.20;;
61709;SDS011;73500;51.494;5.386;2024-02-28T00:17:52;8.10;;;5.45;;
61709;SDS011;73500;51.494;5.386;2024-02-28T00:20:18;7.55;;;5.45;;
61709;SDS011;73500;51.494;5.386;2024-02-28T00:22:43;8.00;;;5.38;;
61709;SDS011;73500;51.494;5.386;2024-02-28T00:25:09;7.43;;;5.28;;
61709;SDS011;73500;51.494;5.386;2024-02-28T00:27:36;8.10;;;5.15;;
61709;SDS011;73500;51.494;5.386;2024-02-28T00:30:02;7.47;;;5.18;;
61709;SDS011;73500;51.494;5.386;2024-02-28T00:32:31;7.43;;;4.85;;
61709;SDS011;73500;51.494;5.386;2024-02-28T00:34:57;7.72;;;5.57;;
61709;SDS011;73500;51.494;5.386;2024-02-28T00:37:22;7.20;;;5.13;;
61709;SDS011;73500;51.494;5.386;2024-02-28T00:39:47;7.25;;;5.13;;
61709;SDS011;73500;51.494;5.386;2024-02-28T00:42:12;6.05;;;4.85;;
61709;SDS011;73500;51.494;5.386;2024-02-28T00:44:38;6.93;;;5.00;;
61709;SDS011;73500;51.494;5.386;2024-02-28T00:47:03;6.55;;;5.18;;
61709;SDS011;73500;51.494;5.386;2024-02-28T00:49:29;7.30;;;5.25;;
61709;SDS011;73500;51.494;5.386;2024-02-28T00:51:54;7.90;;;5.15;;
61709;SDS011;73500;51.494;5.386;2024-02-28T00:54:19;7.17;;;5.07;;
61709;SDS011;73500;51.494;5.386;2024-02-28T00:56:46;7.10;;;5.32;;
61709;SDS011;73500;51.494;5.386;2024-02-28T00:59:12;6.90;;;4.85;;
61709;SDS011;73500;51.494;5.386;2024-02-28T01:01:37;8.48;;;4.88;;
61709;SDS011;73500;51.494;5.386;2024-02-28T01:04:03;8.00;;;5.20;;
61709;SDS011;73500;51.494;5.386;2024-02-28T01:06:28;8.75;;;6.10;;
61709;SDS011;73500;51.494;5.386;2024-02-28T01:08:53;7.38;;;5.38;;
61709;SDS011;73500;51.494;5.386;2024-02-28T01:11:19;7.25;;;5.20;;
61709;SDS011;73500;51.494;5.386;2024-02-28T01:13:44;9.40;;;4.88;;
61709;SDS011;73500;51.494;5.386;2024-02-28T01:16:09;6.28;;;4.95;;
61709;SDS011;73500;51.494;5.386;2024-02-28T01:18:34;7.35;;;5.22;;
61709;SDS011;73500;51.494;5.386;2024-02-28T01:21:00;6.95;;;5.13;;
61709;SDS011;73500;51.494;5.386;2024-02-28T01:23:25;7.10;;;4.85;;
61709;SDS011;73500;51.494;5.386;2024-02-28T01:25:50;7.53;;;4.95;;
61709;SDS011;73500;51.494;5.386;2024-02-28T01:28:16;7.55;;;5.25;;
61709;SDS011;73500;51.494;5.386;2024-02-28T01:30:41;7.13;;;4.85;;
61709;SDS011;73500;51.494;5.386;2024-02-28T01:33:06;6.53;;;4.75;;
61709;SDS011;73500;51.494;5.386;2024-02-28T01:35:31;6.63;;;5.00;;
61709;SDS011;73500;51.494;5.386;2024-02-28T01:37:57;6.53;;;4.55;;
61709;SDS011;73500;51.494;5.386;2024-02-28T01:40:22;6.72;;;4.82;;
61709;SDS011;73500;51.494;5.386;2024-02-28T01:42:47;6.40;;;4.82;;
61709;SDS011;73500;51.494;5.386;2024-02-28T01:45:13;7.60;;;5.25;;
61709;SDS011;73500;51.494;5.386;2024-02-28T01:47:39;7.80;;;5.15;;
61709;SDS011;73500;51.494;5.386;2024-02-28T01:50:06;7.05;;;4.57;;
61709;SDS011;73500;51.494;5.386;2024-02-28T01:52:32;6.70;;;4.72;;
61709;SDS011;73500;51.494;5.386;2024-02-28T01:54:58;6.25;;;4.70;;
61709;SDS011;73500;51.494;5.386;2024-02-28T01:57:24;6.88;;;4.60;;
61709;SDS011;73500;51.494;5.386;2024-02-28T01:59:49;6.80;;;4.72;;
61709;SDS011;73500;51.494;5.386;2024-02-28T02:02:15;6.68;;;4.80;;
61709;SDS011;73500;51.494;5.386;2024-02-28T02:04:40;6.63;;;4.63;;
61709;SDS011;73500;51.494;5.386;2024-02-28T02:07:06;7.55;;;4.47;;
61709;SDS011;73500;51.494;5.386;2024-02-28T02:09:31;6.25;;;4.28;;
61709;SDS011;73500;51.494;5.386;2024-02-28T02:11:59;6.22;;;4.40;;
61709;SDS011;73500;51.494;5.386;2024-02-28T02:14:24;7.07;;;5.10;;
61709;SDS011;73500;51.494;5.386;2024-02-28T02:16:50;6.82;;;4.47;;
61709;SDS011;73500;51.494;5.386;2024-02-28T02:19:15;6.15;;;4.35;;
61709;SDS011;73500;51.494;5.386;2024-02-28T02:21:43;6.40;;;4.55;;
61709;SDS011;73500;51.494;5.386;2024-02-28T02:24:17;6.10;;;3.88;;
61709;SDS011;73500;51.494;5.386;2024-02-28T02:26:43;6.20;;;4.45;;
61709;SDS011;73500;51.494;5.386;2024-02-28T02:29:10;7.72;;;4.90;;
61709;SDS011;73500;51.494;5.386;2024-02-28T02:31:36;6.25;;;4.22;;
61709;SDS011;73500;51.494;5.386;2024-02-28T02:34:01;6.03;;;4.68;;
61709;SDS011;73500;51.494;5.386;2024-02-28T02:36:26;7.10;;;4.65;;
61709;SDS011;73500;51.494;5.386;2024-02-28T02:38:52;5.93;;;4.40;;
61709;SDS011;73500;51.494;5.386;2024-02-28T02:41:17;6.13;;;4.53;;
61709;SDS011;73500;51.494;5.386;2024-02-28T02:43:43;6.68;;;4.20;;
61709;SDS011;73500;51.494;5.386;2024-02-28T02:46:08;6.85;;;4.70;;
61709;SDS011;73500;51.494;5.386;2024-02-28T02:48:33;7.50;;;4.40;;
61709;SDS011;73500;51.494;5.386;2024-02-28T02:50:59;6.13;;;4.40;;
61709;SDS011;73500;51.494;5.386;2024-02-28T02:53:24;6.03;;;4.30;;
61709;SDS011;73500;51.494;5.386;2024-02-28T02:55:49;6.88;;;4.65;;
61709;SDS011;73500;51.494;5.386;2024-02-28T02:58:14;7.55;;;4.50;;
61709;SDS011;73500;51.494;5.386;2024-02-28T03:00:40;6.28;;;4.38;;
61709;SDS011;73500;51.494;5.386;2024-02-28T03:03:05;7.45;;;4.63;;
61709;SDS011;73500;51.494;5.386;2024-02-28T03:05:31;7.97;;;4.97;;
61709;SDS011;73500;51.494;5.386;2024-02-28T03:07:56;7.82;;;4.88;;
61709;SDS011;73500;51.494;5.386;2024-02-28T03:10:21;7.22;;;4.45;;
61709;SDS011;73500;51.494;5.386;2024-02-28T03:12:46;8.68;;;4.40;;
61709;SDS011;73500;51.494;5.386;2024-02-28T03:15:12;7.35;;;4.85;;
61709;SDS011;73500;51.494;5.386;2024-02-28T03:17:37;6.72;;;4.80;;
61709;SDS011;73500;51.494;5.386;2024-02-28T03:20:02;7.38;;;4.80;;
61709;SDS011;73500;51.494;5.386;2024-02-28T03:22:28;7.45;;;4.45;;
61709;SDS011;73500;51.494;5.386;2024-02-28T03:24:53;7.40;;;4.80;;
61709;SDS011;73500;51.494;5.386;2024-02-28T03:27:19;5.93;;;4.50;;
61709;SDS011;73500;51.494;5.386;2024-02-28T03:29:44;6.28;;;4.18;;
61709;SDS011;73500;51.494;5.386;2024-02-28T03:32:09;5.65;;;3.97;;
61709;SDS011;73500;51.494;5.386;2024-02-28T03:34:34;8.05;;;4.20;;
61709;SDS011;73500;51.494;5.386;2024-02-28T03:37:00;6.60;;;4.43;;
61709;SDS011;73500;51.494;5.386;2024-02-28T03:39:25;9.07;;;4.30;;
61709;SDS011;73500;51.494;5.386;2024-02-28T03:41:50;7.07;;;4.32;;
61709;SDS011;73500;51.494;5.386;2024-02-28T03:44:16;7.20;;;4.35;;
61709;SDS011;73500;51.494;5.386;2024-02-28T03:46:41;6.85;;;4.65;;
61709;SDS011;73500;51.494;5.386;2024-02-28T03:49:06;7.03;;;4.20;;
61709;SDS011;73500;51.494;5.386;2024-02-28T03:51:32;7.13;;;4.18;;
61709;SDS011;73500;51.494;5.386;2024-02-28T03:53:57;7.57;;;4.47;;
61709;SDS011;73500;51.494;5.386;2024-02-28T03:56:23;6.43;;;3.83;;
61709;SDS011;73500;51.494;5.386;2024-02-28T03:58:51;7.20;;;4.88;;
61709;SDS011;73500;51.494;5.386;2024-02-28T04:01:17;7.57;;;4.22;;
61709;SDS011;73500;51.494;5.386;2024-02-28T04:03:43;6.55;;;3.95;;
61709;SDS011;73500;51.494;5.386;2024-02-28T04:06:08;6.47;;;4.28;;
61709;SDS011;73500;51.494;5.386;2024-02-28T04:08:34;6.10;;;4.43;;
61709;SDS011;73500;51.494;5.386;2024-02-28T04:10:59;7.30;;;4.32;;
61709;SDS011;73500;51.494;5.386;2024-02-28T04:13:24;7.50;;;4.00;;
61709;SDS011;73500;51.494;5.386;2024-02-28T04:15:50;6.85;;;4.43;;
61709;SDS011;73500;51.494;5.386;2024-02-28T04:18:15;6.82;;;4.50;;
61709;SDS011;73500;51.494;5.386;2024-02-28T04:20:40;6.20;;;4.63;;
61709;SDS011;73500;51.494;5.386;2024-02-28T04:23:06;6.47;;;4.15;;
61709;SDS011;73500;51.494;5.386;2024-02-28T04:25:31;7.85;;;4.35;;
61709;SDS011;73500;51.494;5.386;2024-02-28T04:27:56;6.65;;;4.30;;
61709;SDS011;73500;51.494;5.386;2024-02-28T04:30:22;6.82;;;4.22;;
61709;SDS011;73500;51.494;5.386;2024-02-28T04:32:47;7.80;;;4.40;;
61709;SDS011;73500;51.494;5.386;2024-02-28T04:35:12;5.95;;;4.40;;
61709;SDS011;73500;51.494;5.386;2024-02-28T04:37:40;7.55;;;4.65;;
61709;SDS011;73500;51.494;5.386;2024-02-28T04:40:06;5.60;;;4.00;;
61709;SDS011;73500;51.494;5.386;2024-02-28T04:42:31;7.18;;;4.20;;
61709;SDS011;73500;51.494;5.386;2024-02-28T04:44:57;5.53;;;3.83;;
61709;SDS011;73500;51.494;5.386;2024-02-28T04:47:22;6.85;;;4.10;;
61709;SDS011;73500;51.494;5.386;2024-02-28T04:49:48;7.20;;;4.00;;
61709;SDS011;73500;51.494;5.386;2024-02-28T04:52:13;6.35;;;4.10;;
61709;SDS011;73500;51.494;5.386;2024-02-28T04:54:39;6.28;;;4.20;;
61709;SDS011;73500;51.494;5.386;2024-02-28T04:57:05;6.80;;;4.20;;
61709;SDS011;73500;51.494;5.386;2024-02-28T04:59:30;6.10;;;3.70;;
61709;SDS011;73500;51.494;5.386;2024-02-28T05:01:56;6.40;;;3.92;;
61709;SDS011;73500;51.494;5.386;2024-02-28T05:04:22;6.70;;;4.20;;
61709;SDS011;73500;51.494;5.386;2024-02-28T05:06:48;6.20;;;4.43;;
61709;SDS011;73500;51.494;5.386;2024-02-28T05:09:13;6.65;;;4.00;;
61709;SDS011;73500;51.494;5.386;2024-02-28T05:11:39;5.82;;;4.03;;
61709;SDS011;73500;51.494;5.386;2024-02-28T05:14:04;7.25;;;4.05;;
61709;SDS011;73500;51.494;5.386;2024-02-28T05:16:30;6.07;;;4.18;;
61709;SDS011;73500;51.494;5.386;2024-02-28T05:18:55;6.85;;;4.10;;
61709;SDS011;73500;51.494;5.386;2024-02-28T05:21:20;5.22;;;3.63;;
61709;SDS011;73500;51.494;5.386;2024-02-28T05:23:45;6.85;;;3.67;;
61709;SDS011;73500;51.494;5.386;2024-02-28T05:26:11;6.55;;;4.05;;
61709;SDS011;73500;51.494;5.386;2024-02-28T05:28:36;5.90;;;3.63;;
61709;SDS011;73500;51.494;5.386;2024-02-28T05:31:18;6.65;;;4.50;;
61709;SDS011;73500;51.494;5.386;2024-02-28T05:33:47;5.85;;;3.92;;
61709;SDS011;73500;51.494;5.386;2024-02-28T05:36:13;6.40;;;3.92;;
61709;SDS011;73500;51.494;5.386;2024-02-28T05:38:39;7.15;;;4.20;;
61709;SDS011;73500;51.494;5.386;2024-02-28T05:41:04;5.60;;;3.60;;
61709;SDS011;73500;51.494;5.386;2024-02-28T05:43:29;6.10;;;3.50;;
61709;SDS011;73500;51.494;5.386;2024-02-28T05:45:54;5.97;;;3.63;;
61709;SDS011;73500;51.494;5.386;2024-02-28T05:48:20;5.88;;;3.30;;
61709;SDS011;73500;51.494;5.386;2024-02-28T05:50:45;5.00;;;2.97;;
61709;SDS011;73500;51.494;5.386;2024-02-28T05:53:11;4.93;;;2.63;;
61709;SDS011;73500;51.494;5.386;2024-02-28T05:55:36;4.93;;;2.78;;
61709;SDS011;73500;51.494;5.386;2024-02-28T05:58:01;5.32;;;2.55;;
61709;SDS011;73500;51.494;5.386;2024-02-28T06:00:27;5.38;;;2.70;;
61709;SDS011;73500;51.494;5.386;2024-02-28T06:02:53;3.70;;;2.30;;
61709;SDS011;73500;51.494;5.386;2024-02-28T06:05:18;5.20;;;2.65;;
61709;SDS011;73500;51.494;5.386;2024-02-28T06:07:44;5.68;;;2.60;;
61709;SDS011;73500;51.494;5.386;2024-02-28T06:10:09;4.85;;;2.60;;
61709;SDS011;73500;51.494;5.386;2024-02-28T06:12:35;4.40;;;2.80;;
61709;SDS011;73500;51.494;5.386;2024-02-28T06:15:01;4.60;;;2.55;;
61709;SDS011;73500;51.494;5.386;2024-02-28T06:17:26;5.78;;;2.88;;
61709;SDS011;73500;51.494;5.386;2024-02-28T06:19:51;4.85;;;2.92;;
61709;SDS011;73500;51.494;5.386;2024-02-28T06:22:16;4.90;;;2.92;;
61709;SDS011;73500;51.494;5.386;2024-02-28T06:24:44;5.00;;;2.70;;
61709;SDS011;73500;51.494;5.386;2024-02-28T06:27:10;4.60;;;2.42;;
61709;SDS011;73500;51.494;5.386;2024-02-28T06:29:37;4.95;;;2.83;;
61709;SDS011;73500;51.494;5.386;2024-02-28T06:32:03;5.25;;;2.63;;
61709;SDS011;73500;51.494;5.386;2024-02-28T06:34:29;5.80;;;2.60;;
61709;SDS011;73500;51.494;5.386;2024-02-28T06:36:54;5.57;;;2.80;;
61709;SDS011;73500;51.494;5.386;2024-02-28T06:39:19;6.72;;;2.80;;
61709;SDS011;73500;51.494;5.386;2024-02-28T06:41:45;4.70;;;2.80;;
61709;SDS011;73500;51.494;5.386;2024-02-28T06:44:10;4.63;;;2.65;;
61709;SDS011;73500;51.494;5.386;2024-02-28T06:46:36;5.00;;;2.67;;
61709;SDS011;73500;51.494;5.386;2024-02-28T06:49:02;4.60;;;2.75;;
61709;SDS011;73500;51.494;5.386;2024-02-28T06:51:27;5.38;;;2.90;;
61709;SDS011;73500;51.494;5.386;2024-02-28T06:53:53;5.30;;;2.80;;
61709;SDS011;73500;51.494;5.386;2024-02-28T06:56:18;6.82;;;3.17;;
61709;SDS011;73500;51.494;5.386;2024-02-28T06:58:43;5.82;;;3.40;;
61709;SDS011;73500;51.494;5.386;2024-02-28T07:01:09;5.65;;;3.20;;
61709;SDS011;73500;51.494;5.386;2024-02-28T07:03:34;5.93;;;3.05;;
61709;SDS011;73500;51.494;5.386;2024-02-28T07:05:59;6.40;;;3.58;;
61709;SDS011;73500;51.494;5.386;2024-02-28T07:08:25;6.50;;;3.95;;
61709;SDS011;73500;51.494;5.386;2024-02-28T07:10:50;5.55;;;3.05;;
61709;SDS011;73500;51.494;5.386;2024-02-28T07:13:19;5.72;;;2.83;;
61709;SDS011;73500;51.494;5.386;2024-02-28T07:15:45;6.15;;;3.67;;
61709;SDS011;73500;51.494;5.386;2024-02-28T07:18:10;7.20;;;3.65;;
61709;SDS011;73500;51.494;5.386;2024-02-28T07:20:35;5.95;;;3.95;;
61709;SDS011;73500;51.494;5.386;2024-02-28T07:23:01;5.40;;;3.10;;
61709;SDS011;73500;51.494;5.386;2024-02-28T07:25:26;5.50;;;3.03;;
61709;SDS011;73500;51.494;5.386;2024-02-28T07:27:51;5.32;;;3.22;;
61709;SDS011;73500;51.494;5.386;2024-02-28T07:30:16;7.32;;;3.28;;
61709;SDS011;73500;51.494;5.386;2024-02-28T07:32:42;6.10;;;2.92;;
61709;SDS011;73500;51.494;5.386;2024-02-28T07:35:07;6.25;;;3.47;;
61709;SDS011;73500;51.494;5.386;2024-02-28T07:37:33;5.43;;;3.45;;
61709;SDS011;73500;51.494;5.386;2024-02-28T07:39:58;5.13;;;3.28;;
61709;SDS011;73500;51.494;5.386;2024-02-28T07:42:23;6.10;;;3.50;;
61709;SDS011;73500;51.494;5.386;2024-02-28T07:44:49;6.20;;;3.35;;
61709;SDS011;73500;51.494;5.386;2024-02-28T07:47:18;8.23;;;3.78;;
61709;SDS011;73500;51.494;5.386;2024-02-28T07:49:43;6.78;;;3.40;;
61709;SDS011;73500;51.494;5.386;2024-02-28T07:52:09;6.03;;;3.38;;
61709;SDS011;73500;51.494;5.386;2024-02-28T07:54:34;6.70;;;3.55;;
61709;SDS011;73500;51.494;5.386;2024-02-28T07:57:01;6.30;;;3.00;;
61709;SDS011;73500;51.494;5.386;2024-02-28T07:59:26;5.38;;;3.08;;
61709;SDS011;73500;51.494;5.386;2024-02-28T08:01:51;7.20;;;3.72;;
61709;SDS011;73500;51.494;5.386;2024-02-28T08:04:17;6.47;;;3.47;;
61709;SDS011;73500;51.494;5.386;2024-02-28T08:06:42;6.13;;;3.42;;
61709;SDS011;73500;51.494;5.386;2024-02-28T08:09:08;10.30;;;3.63;;
61709;SDS011;73500;51.494;5.386;2024-02-28T08:11:33;5.30;;;3.00;;
61709;SDS011;73500;51.494;5.386;2024-02-28T08:13:58;5.70;;;3.33;;
61709;SDS011;73500;51.494;5.386;2024-02-28T08:16:24;6.88;;;3.53;;
61709;SDS011;73500;51.494;5.386;2024-02-28T08:18:49;6.93;;;3.97;;
61709;SDS011;73500;51.494;5.386;2024-02-28T08:21:14;6.40;;;3.10;;
61709;SDS011;73500;51.494;5.386;2024-02-28T08:23:39;6.53;;;3.58;;
61709;SDS011;73500;51.494;5.386;2024-02-28T08:26:05;6.82;;;3.72;;
61709;SDS011;73500;51.494;5.386;2024-02-28T08:28:30;7.50;;;3.67;;
61709;SDS011;73500;51.494;5.386;2024-02-28T08:30:55;6.80;;;3.70;;
61709;SDS011;73500;51.494;5.386;2024-02-28T08:33:21;6.15;;;3.17;;
61709;SDS011;73500;51.494;5.386;2024-02-28T08:35:46;5.65;;;3.33;;
61709;SDS011;73500;51.494;5.386;2024-02-28T08:38:11;7.18;;;3.75;;
61709;SDS011;73500;51.494;5.386;2024-02-28T08:40:37;8.07;;;3.88;;
61709;SDS011;73500;51.494;5.386;2024-02-28T08:43:02;7.15;;;3.42;;
61709;SDS011;73500;51.494;5.386;2024-02-28T08:45:27;7.65;;;3.30;;
61709;SDS011;73500;51.494;5.386;2024-02-28T08:47:53;8.35;;;3.90;;
61709;SDS011;73500;51.494;5.386;2024-02-28T08:50:18;6.70;;;3.70;;
61709;SDS011;73500;51.494;5.386;2024-02-28T08:52:43;8.15;;;4.10;;
61709;SDS011;73500;51.494;5.386;2024-02-28T08:55:09;11.50;;;3.72;;
61709;SDS011;73500;51.494;5.386;2024-02-28T08:57:34;7.80;;;4.07;;
61709;SDS011;73500;51.494;5.386;2024-02-28T08:59:59;7.28;;;3.72;;
61709;SDS011;73500;51.494;5.386;2024-02-28T09:02:25;5.90;;;3.65;;
61709;SDS011;73500;51.494;5.386;2024-02-28T09:04:50;7.10;;;3.30;;
61709;SDS011;73500;51.494;5.386;2024-02-28T09:07:18;7.68;;;3.58;;
61709;SDS011;73500;51.494;5.386;2024-02-28T09:09:46;6.38;;;3.75;;
61709;SDS011;73500;51.494;5.386;2024-02-28T09:12:12;6.28;;;3.67;;
61709;SDS011;73500;51.494;5.386;2024-02-28T09:14:37;8.68;;;3.97;;
61709;SDS011;73500;51.494;5.386;2024-02-28T09:17:03;9.63;;;3.85;;
61709;SDS011;73500;51.494;5.386;2024-02-28T09:19:29;6.68;;;3.35;;
61709;SDS011;73500;51.494;5.386;2024-02-28T09:21:55;7.28;;;3.40;;
61709;SDS011;73500;51.494;5.386;2024-02-28T09:24:20;7.53;;;3.92;;
61709;SDS011;73500;51.494;5.386;2024-02-28T09:26:45;6.78;;;4.05;;
61709;SDS011;73500;51.494;5.386;2024-02-28T09:29:10;9.68;;;3.85;;
61709;SDS011;73500;51.494;5.386;2024-02-28T09:31:36;8.88;;;3.75;;
61709;SDS011;73500;51.494;5.386;2024-02-28T09:34:01;8.05;;;3.92;;
61709;SDS011;73500;51.494;5.386;2024-02-28T09:36:32;9.30;;;4.55;;
61709;SDS011;73500;51.494;5.386;2024-02-28T09:38:57;7.28;;;3.95;;
61709;SDS011;73500;51.494;5.386;2024-02-28T09:41:22;9.00;;;3.63;;
61709;SDS011;73500;51.494;5.386;2024-02-28T09:43:51;8.90;;;4.18;;
61709;SDS011;73500;51.494;5.386;2024-02-28T09:46:17;7.50;;;4.00;;
61709;SDS011;73500;51.494;5.386;2024-02-28T09:48:43;8.60;;;4.07;;
61709;SDS011;73500;51.494;5.386;2024-02-28T09:51:13;8.45;;;3.60;;
61709;SDS011;73500;51.494;5.386;2024-02-28T09:53:39;9.88;;;3.80;;
61709;SDS011;73500;51.494;5.386;2024-02-28T09:56:06;8.07;;;3.90;;
61709;SDS011;73500;51.494;5.386;2024-02-28T09:58:31;9.50;;;3.88;;
61709;SDS011;73500;51.494;5.386;2024-02-28T10:00:58;6.63;;;3.50;;
61709;SDS011;73500;51.494;5.386;2024-02-28T10:03:27;8.50;;;4.22;;
61709;SDS011;73500;51.494;5.386;2024-02-28T10:05:55;8.10;;;3.70;;
61709;SDS011;73500;51.494;5.386;2024-02-28T10:08:20;7.85;;;3.80;;
61709;SDS011;73500;51.494;5.386;2024-02-28T10:10:46;5.70;;;3.05;;
61709;SDS011;73500;51.494;5.386;2024-02-28T10:13:12;7.30;;;3.60;;
61709;SDS011;73500;51.494;5.386;2024-02-28T10:15:38;7.78;;;3.67;;
61709;SDS011;73500;51.494;5.386;2024-02-28T10:18:03;6.40;;;3.28;;
61709;SDS011;73500;51.494;5.386;2024-02-28T10:20:32;9.88;;;3.58;;
61709;SDS011;73500;51.494;5.386;2024-02-28T10:22:57;13.15;;;3.78;;
61709;SDS011;73500;51.494;5.386;2024-02-28T10:25:23;8.07;;;3.38;;
61709;SDS011;73500;51.494;5.386;2024-02-28T10:27:48;10.73;;;3.67;;
61709;SDS011;73500;51.494;5.386;2024-02-28T10:30:14;8.73;;;3.45;;
61709;SDS011;73500;51.494;5.386;2024-02-28T10:32:48;7.28;;;3.80;;
61709;SDS011;73500;51.494;5.386;2024-02-28T10:35:14;8.45;;;3.33;;
61709;SDS011;73500;51.494;5.386;2024-02-28T10:37:44;7.82;;;3.78;;
61709;SDS011;73500;51.494;5.386;2024-02-28T10:40:11;7.47;;;3.17;;
61709;SDS011;73500;51.494;5.386;2024-02-28T10:42:38;9.18;;;3.17;;
61709;SDS011;73500;51.494;5.386;2024-02-28T10:45:07;7.00;;;3.58;;
61709;SDS011;73500;51.494;5.386;2024-02-28T10:47:35;6.85;;;3.40;;
61709;SDS011;73500;51.494;5.386;2024-02-28T10:50:03;8.98;;;3.05;;
61709;SDS011;73500;51.494;5.386;2024-02-28T10:52:29;7.60;;;3.20;;
61709;SDS011;73500;51.494;5.386;2024-02-28T10:54:58;6.03;;;3.47;;
61709;SDS011;73500;51.494;5.386;2024-02-28T10:57:25;6.95;;;2.90;;
61709;SDS011;73500;51.494;5.386;2024-02-28T10:59:51;7.15;;;3.13;;
61709;SDS011;73500;51.494;5.386;2024-02-28T11:02:18;9.80;;;3.22;;
61709;SDS011;73500;51.494;5.386;2024-02-28T11:04:44;8.60;;;4.20;;
61709;SDS011;73500;51.494;5.386;2024-02-28T11:07:09;8.52;;;4.05;;
61709;SDS011;73500;51.494;5.386;2024-02-28T11:09:35;7.35;;;3.72;;
61709;SDS011;73500;51.494;5.386;2024-02-28T11:12:00;7.93;;;3.47;;
61709;SDS011;73500;51.494;5.386;2024-02-28T11:14:25;6.20;;;3.22;;
61709;SDS011;73500;51.494;5.386;2024-02-28T11:17:04;6.82;;;3.25;;
61709;SDS011;73500;51.494;5.386;2024-02-28T11:19:31;6.95;;;3.33;;
61709;SDS011;73500;51.494;5.386;2024-02-28T11:21:58;8.52;;;3.20;;
61709;SDS011;73500;51.494;5.386;2024-02-28T11:24:24;6.28;;;3.25;;
61709;SDS011;73500;51.494;5.386;2024-02-28T11:26:59;7.65;;;3.10;;
61709;SDS011;73500;51.494;5.386;2024-02-28T11:29:25;6.78;;;2.97;;
61709;SDS011;73500;51.494;5.386;2024-02-28T11:31:51;6.63;;;2.85;;
61709;SDS011;73500;51.494;5.386;2024-02-28T11:34:17;7.97;;;3.28;;
61709;SDS011;73500;51.494;5.386;2024-02-28T11:36:43;5.78;;;2.75;;
61709;SDS011;73500;51.494;5.386;2024-02-28T11:39:12;7.63;;;3.35;;
61709;SDS011;73500;51.494;5.386;2024-02-28T11:41:38;9.82;;;4.55;;
61709;SDS011;73500;51.494;5.386;2024-02-28T11:44:04;9.93;;;5.65;;
61709;SDS011;73500;51.494;5.386;2024-02-28T11:46:30;14.05;;;7.50;;
61709;SDS011;73500;51.494;5.386;2024-02-28T11:48:55;15.25;;;10.35;;
61709;SDS011;73500;51.494;5.386;2024-02-28T11:51:21;21.05;;;11.57;;
61709;SDS011;73500;51.494;5.386;2024-02-28T11:53:46;17.33;;;10.93;;
61709;SDS011;73500;51.494;5.386;2024-02-28T11:56:12;16.50;;;9.75;;
61709;SDS011;73500;51.494;5.386;2024-02-28T11:58:51;15.30;;;9.50;;
61709;SDS011;73500;51.494;5.386;2024-02-28T12:01:32;15.57;;;9.57;;
61709;SDS011;73500;51.494;5.386;2024-02-28T12:03:57;16.50;;;9.10;;
61709;SDS011;73500;51.494;5.386;2024-02-28T12:06:23;14.90;;;9.05;;
61709;SDS011;73500;51.494;5.386;2024-02-28T12:08:48;15.55;;;9.15;;
61709;SDS011;73500;51.494;5.386;2024-02-28T12:11:14;17.42;;;8.45;;
61709;SDS011;73500;51.494;5.386;2024-02-28T12:13:39;12.77;;;7.80;;
61709;SDS011;73500;51.494;5.386;2024-02-28T12:16:04;14.85;;;8.25;;
61709;SDS011;73500;51.494;5.386;2024-02-28T12:18:30;12.25;;;7.10;;
61709;SDS011;73500;51.494;5.386;2024-02-28T12:20:55;14.55;;;7.85;;
61709;SDS011;73500;51.494;5.386;2024-02-28T12:23:20;11.20;;;6.40;;
61709;SDS011;73500;51.494;5.386;2024-02-28T12:25:46;13.98;;;6.47;;
61709;SDS011;73500;51.494;5.386;2024-02-28T12:28:11;13.57;;;6.80;;
61709;SDS011;73500;51.494;5.386;2024-02-28T12:30:41;12.68;;;6.63;;
61709;SDS011;73500;51.494;5.386;2024-02-28T12:33:08;10.35;;;5.88;;
61709;SDS011;73500;51.494;5.386;2024-02-28T12:35:33;8.30;;;5.55;;
61709;SDS011;73500;51.494;5.386;2024-02-28T12:37:59;11.85;;;5.63;;
61709;SDS011;73500;51.494;5.386;2024-02-28T12:40:24;11.20;;;5.90;;
61709;SDS011;73500;51.494;5.386;2024-02-28T12:42:50;8.90;;;5.25;;
61709;SDS011;73500;51.494;5.386;2024-02-28T12:45:15;12.05;;;5.57;;
61709;SDS011;73500;51.494;5.386;2024-02-28T12:47:41;10.55;;;5.47;;
61709;SDS011;73500;51.494;5.386;2024-02-28T12:50:06;9.55;;;4.93;;
61709;SDS011;73500;51.494;5.386;2024-02-28T12:52:33;10.93;;;5.40;;
61709;SDS011;73500;51.494;5.386;2024-02-28T12:54:59;11.32;;;5.45;;
61709;SDS011;73500;51.494;5.386;2024-02-28T12:57:24;8.10;;;4.65;;
61709;SDS011;73500;51.494;5.386;2024-02-28T12:59:49;11.15;;;4.68;;
61709;SDS011;73500;51.494;5.386;2024-02-28T13:02:15;8.88;;;4.70;;
61709;SDS011;73500;51.494;5.386;2024-02-28T13:04:42;12.25;;;4.72;;
61709;SDS011;73500;51.494;5.386;2024-02-28T13:07:07;6.95;;;4.10;;
61709;SDS011;73500;51.494;5.386;2024-02-28T13:09:33;9.80;;;4.45;;
61709;SDS011;73500;51.494;5.386;2024-02-28T13:11:58;8.85;;;4.40;;
61709;SDS011;73500;51.494;5.386;2024-02-28T13:14:23;8.45;;;4.30;;
61709;SDS011;73500;51.494;5.386;2024-02-28T13:16:49;8.15;;;4.40;;
61709;SDS011;73500;51.494;5.386;2024-02-28T13:19:15;8.95;;;4.18;;
61709;SDS011;73500;51.494;5.386;2024-02-28T13:21:40;7.25;;;3.60;;
61709;SDS011;73500;51.494;5.386;2024-02-28T13:24:05;8.40;;;4.47;;
61709;SDS011;73500;51.494;5.386;2024-02-28T13:26:31;7.43;;;3.65;;
61709;SDS011;73500;51.494;5.386;2024-02-28T13:28:56;9.10;;;4.22;;
61709;SDS011;73500;51.494;5.386;2024-02-28T13:31:22;8.38;;;4.28;;
61709;SDS011;73500;51.494;5.386;2024-02-28T13:33:47;8.13;;;3.67;;
61709;SDS011;73500;51.494;5.386;2024-02-28T13:36:13;7.63;;;3.60;;
61709;SDS011;73500;51.494;5.386;2024-02-28T13:38:38;7.03;;;3.67;;
61709;SDS011;73500;51.494;5.386;2024-02-28T13:41:04;7.70;;;3.60;;
61709;SDS011;73500;51.494;5.386;2024-02-28T13:43:29;7.43;;;3.70;;
61709;SDS011;73500;51.494;5.386;2024-02-28T13:45:55;8.05;;;3.05;;
61709;SDS011;73500;51.494;5.386;2024-02-28T13:48:31;6.45;;;3.40;;
61709;SDS011;73500;51.494;5.386;2024-02-28T13:50:58;8.07;;;3.63;;
61709;SDS011;73500;51.494;5.386;2024-02-28T13:53:24;6.32;;;3.22;;
61709;SDS011;73500;51.494;5.386;2024-02-28T13:55:50;6.00;;;3.15;;
61709;SDS011;73500;51.494;5.386;2024-02-28T13:58:15;7.72;;;3.40;;
61709;SDS011;73500;51.494;5.386;2024-02-28T14:00:43;5.72;;;2.95;;
61709;SDS011;73500;51.494;5.386;2024-02-28T14:03:10;6.15;;;3.10;;
61709;SDS011;73500;51.494;5.386;2024-02-28T14:05:36;7.03;;;2.80;;
61709;SDS011;73500;51.494;5.386;2024-02-28T14:08:01;5.63;;;3.10;;
61709;SDS011;73500;51.494;5.386;2024-02-28T14:10:28;7.05;;;3.10;;
61709;SDS011;73500;51.494;5.386;2024-02-28T14:12:54;5.55;;;2.92;;
61709;SDS011;73500;51.494;5.386;2024-02-28T14:15:19;5.60;;;2.88;;
61709;SDS011;73500;51.494;5.386;2024-02-28T14:17:45;6.13;;;3.13;;
61709;SDS011;73500;51.494;5.386;2024-02-28T14:20:11;6.40;;;2.70;;
61709;SDS011;73500;51.494;5.386;2024-02-28T14:22:36;7.55;;;3.03;;
61709;SDS011;73500;51.494;5.386;2024-02-28T14:25:06;5.60;;;2.95;;
61709;SDS011;73500;51.494;5.386;2024-02-28T14:27:32;6.90;;;2.90;;
61709;SDS011;73500;51.494;5.386;2024-02-28T14:29:58;6.13;;;3.00;;
61709;SDS011;73500;51.494;5.386;2024-02-28T14:32:23;6.88;;;2.50;;
61709;SDS011;73500;51.494;5.386;2024-02-28T14:34:49;6.25;;;2.80;;
61709;SDS011;73500;51.494;5.386;2024-02-28T14:37:16;4.30;;;2.58;;